sensor_id;sensor_type;location;lat;lon;timestamp;temperature;humidity
58983;DHT22;44771;49.982;8.560;2023-07-13T00:02:02;14.40;99.90
58983;DHT22;44771;49.982;8.560;2023-07-13T00:07:04;14.40;99.90
58983;DHT22;44771;49.982;8.560;2023-07-13T00:12:22;14.60;99.90
58983;DHT22;44771;49.982;8.560;2023-07-13T00:17:25;15.00;99.90
58983;DHT22;44771;49.982;8.560;2023-07-13T00:22:26;15.20;99.90
58983;DHT22;44771;49.982;8.560;2023-07-13T00:27:31;15.20;99.90
58983;DHT22;44771;49.982;8.560;2023-07-13T00:32:33;15.00;99.90
58983;DHT22;44771;49.982;8.560;2023-07-13T00:37:35;14.80;99.90
58983;DHT22;44771;49.982;8.560;2023-07-13T00:42:38;14.60;99.90
58983;DHT22;44771;49.982;8.560;2023-07-13T00:47:40;14.40;99.90
58983;DHT22;44771;49.982;8.560;2023-07-13T00:52:53;14.40;99.90
58983;DHT22;44771;49.982;8.560;2023-07-13T00:57:57;14.40;99.90
58983;DHT22;44771;49.982;8.560;2023-07-13T01:02:59;14.50;99.90
58983;DHT22;44771;49.982;8.560;2023-07-13T01:08:03;14.10;99.90
58983;DHT22;44771;49.982;8.560;2023-07-13T01:13:07;14.20;99.90
58983;DHT22;44771;49.982;8.560;2023-07-13T01:18:11;13.80;99.90
58983;DHT22;44771;49.982;8.560;2023-07-13T01:23:15;13.50;99.90
58983;DHT22;44771;49.982;8.560;2023-07-13T01:28:17;13.40;99.90
58983;DHT22;44771;49.982;8.560;2023-07-13T01:33:19;13.10;99.90
58983;DHT22;44771;49.982;8.560;2023-07-13T01:38:24;13.00;99.90
58983;DHT22;44771;49.982;8.560;2023-07-13T01:43:26;13.00;99.90
58983;DHT22;44771;49.982;8.560;2023-07-13T01:48:28;12.80;99.90
58983;DHT22;44771;49.982;8.560;2023-07-13T01:53:31;12.60;99.90
58983;DHT22;44771;49.982;8.560;2023-07-13T01:58:32;12.70;99.90
58983;DHT22;44771;49.982;8.560;2023-07-13T02:03:34;12.50;99.90
58983;DHT22;44771;49.982;8.560;2023-07-13T02:08:37;12.20;99.90
58983;DHT22;44771;49.982;8.560;2023-07-13T02:13:39;12.10;99.90
58983;DHT22;44771;49.982;8.560;2023-07-13T02:18:41;12.40;99.90
58983;DHT22;44771;49.982;8.560;2023-07-13T02:23:44;12.30;99.90
58983;DHT22;44771;49.982;8.560;2023-07-13T02:28:46;12.10;99.90
58983;DHT22;44771;49.982;8.560;2023-07-13T02:33:47;11.90;99.90
58983;DHT22;44771;49.982;8.560;2023-07-13T02:38:51;11.80;99.90
58983;DHT22;44771;49.982;8.560;2023-07-13T02:43:52;11.60;99.90
58983;DHT22;44771;49.982;8.560;2023-07-13T02:48:54;11.70;99.90
58983;DHT22;44771;49.982;8.560;2023-07-13T02:53:57;11.50;99.90
58983;DHT22;44771;49.982;8.560;2023-07-13T02:58:59;11.30;99.90
58983;DHT22;44771;49.982;8.560;2023-07-13T03:04:01;11.10;99.90
58983;DHT22;44771;49.982;8.560;2023-07-13T03:09:04;11.10;99.90
58983;DHT22;44771;49.982;8.560;2023-07-13T03:14:06;11.00;99.90
58983;DHT22;44771;49.982;8.560;2023-07-13T03:19:08;10.90;99.90
58983;DHT22;44771;49.982;8.560;2023-07-13T03:24:11;10.90;99.90
58983;DHT22;44771;49.982;8.560;2023-07-13T03:29:13;10.90;99.90
58983;DHT22;44771;49.982;8.560;2023-07-13T03:34:14;11.10;99.90
58983;DHT22;44771;49.982;8.560;2023-07-13T03:39:17;11.30;99.90
58983;DHT22;44771;49.982;8.560;2023-07-13T03:44:19;11.10;99.90
58983;DHT22;44771;49.982;8.560;2023-07-13T03:49:21;11.00;99.90
58983;DHT22;44771;49.982;8.560;2023-07-13T03:54:24;11.00;99.90
58983;DHT22;44771;49.982;8.560;2023-07-13T03:59:26;11.00;99.90
58983;DHT22;44771;49.982;8.560;2023-07-13T04:04:28;11.00;99.90
58983;DHT22;44771;49.982;8.560;2023-07-13T04:09:31;10.90;99.90
58983;DHT22;44771;49.982;8.560;2023-07-13T04:14:33;11.00;99.90
58983;DHT22;44771;49.982;8.560;2023-07-13T04:19:35;11.00;99.90
58983;DHT22;44771;49.982;8.560;2023-07-13T04:24:38;10.80;99.90
58983;DHT22;44771;49.982;8.560;2023-07-13T04:29:39;10.90;99.90
58983;DHT22;44771;49.982;8.560;2023-07-13T04:34:41;11.00;99.90
58983;DHT22;44771;49.982;8.560;2023-07-13T04:39:44;11.10;99.90
58983;DHT22;44771;49.982;8.560;2023-07-13T04:44:48;11.20;99.90
58983;DHT22;44771;49.982;8.560;2023-07-13T04:49:49;11.50;99.90
58983;DHT22;44771;49.982;8.560;2023-07-13T04:54:52;11.70;99.90
58983;DHT22;44771;49.982;8.560;2023-07-13T04:59:54;11.90;99.90
58983;DHT22;44771;49.982;8.560;2023-07-13T05:04:56;12.20;99.90
58983;DHT22;44771;49.982;8.560;2023-07-13T05:09:59;12.70;99.90
58983;DHT22;44771;49.982;8.560;2023-07-13T05:15:01;13.20;99.90
58983;DHT22;44771;49.982;8.560;2023-07-13T05:20:03;13.60;99.90
58983;DHT22;44771;49.982;8.560;2023-07-13T05:25:07;14.00;99.90
58983;DHT22;44771;49.982;8.560;2023-07-13T05:30:10;14.40;99.90
58983;DHT22;44771;49.982;8.560;2023-07-13T05:35:12;14.60;99.90
58983;DHT22;44771;49.982;8.560;2023-07-13T05:40:15;14.90;99.90
58983;DHT22;44771;49.982;8.560;2023-07-13T05:45:16;15.10;99.90
58983;DHT22;44771;49.982;8.560;2023-07-13T05:50:18;15.30;99.90
58983;DHT22;44771;49.982;8.560;2023-07-13T05:55:21;15.50;99.90
58983;DHT22;44771;49.982;8.560;2023-07-13T06:00:23;15.70;99.90
58983;DHT22;44771;49.982;8.560;2023-07-13T06:05:25;16.00;99.90
58983;DHT22;44771;49.982;8.560;2023-07-13T06:10:28;16.20;99.90
58983;DHT22;44771;49.982;8.560;2023-07-13T06:15:31;16.50;99.90
58983;DHT22;44771;49.982;8.560;2023-07-13T06:20:34;16.70;99.90
58983;DHT22;44771;49.982;8.560;2023-07-13T06:25:37;17.00;99.90
58983;DHT22;44771;49.982;8.560;2023-07-13T06:30:39;17.10;99.90
58983;DHT22;44771;49.982;8.560;2023-07-13T06:35:41;17.30;99.90
58983;DHT22;44771;49.982;8.560;2023-07-13T06:40:44;17.60;99.90
58983;DHT22;44771;49.982;8.560;2023-07-13T06:45:47;17.80;99.40
58983;DHT22;44771;49.982;8.560;2023-07-13T06:50:49;18.10;98.70
58983;DHT22;44771;49.982;8.560;2023-07-13T06:55:54;18.40;96.90
58983;DHT22;44771;49.982;8.560;2023-07-13T07:00:56;18.60;96.10
58983;DHT22;44771;49.982;8.560;2023-07-13T07:06:00;18.80;95.20
58983;DHT22;44771;49.982;8.560;2023-07-13T07:11:04;19.00;95.10
58983;DHT22;44771;49.982;8.560;2023-07-13T07:16:05;19.30;94.70
58983;DHT22;44771;49.982;8.560;2023-07-13T07:21:08;19.50;94.40
58983;DHT22;44771;49.982;8.560;2023-07-13T07:26:11;19.70;93.50
58983;DHT22;44771;49.982;8.560;2023-07-13T07:31:13;19.90;92.80
58983;DHT22;44771;49.982;8.560;2023-07-13T07:36:18;20.20;91.70
58983;DHT22;44771;49.982;8.560;2023-07-13T07:41:24;20.30;90.50
58983;DHT22;44771;49.982;8.560;2023-07-13T07:46:28;20.60;90.00
58983;DHT22;44771;49.982;8.560;2023-07-13T07:51:30;20.90;87.60
58983;DHT22;44771;49.982;8.560;2023-07-13T07:56:33;21.20;87.30
58983;DHT22;44771;49.982;8.560;2023-07-13T08:01:38;21.50;85.50
58983;DHT22;44771;49.982;8.560;2023-07-13T08:06:43;21.80;85.30
58983;DHT22;44771;49.982;8.560;2023-07-13T08:11:47;22.10;83.70
58983;DHT22;44771;49.982;8.560;2023-07-13T08:16:52;22.30;82.20
58983;DHT22;44771;49.982;8.560;2023-07-13T08:21:54;22.50;79.50
58983;DHT22;44771;49.982;8.560;2023-07-13T08:26:57;22.70;77.40
58983;DHT22;44771;49.982;8.560;2023-07-13T08:31:59;23.00;76.80
58983;DHT22;44771;49.982;8.560;2023-07-13T08:37:01;23.60;73.10
58983;DHT22;44771;49.982;8.560;2023-07-13T08:42:07;23.80;72.40
58983;DHT22;44771;49.982;8.560;2023-07-13T08:47:14;24.00;69.30
58983;DHT22;44771;49.982;8.560;2023-07-13T08:52:25;23.70;66.70
58983;DHT22;44771;49.982;8.560;2023-07-13T08:57:33;23.30;68.80
58983;DHT22;44771;49.982;8.560;2023-07-13T09:02:42;22.90;69.50
58983;DHT22;44771;49.982;8.560;2023-07-13T09:07:58;23.50;69.20
58983;DHT22;44771;49.982;8.560;2023-07-13T09:13:20;23.90;65.50
58983;DHT22;44771;49.982;8.560;2023-07-13T09:18:27;24.10;66.30
58983;DHT22;44771;49.982;8.560;2023-07-13T09:23:30;24.60;61.90
58983;DHT22;44771;49.982;8.560;2023-07-13T09:28:38;24.90;62.30
58983;DHT22;44771;49.982;8.560;2023-07-13T09:33:41;25.20;64.00
58983;DHT22;44771;49.982;8.560;2023-07-13T09:38:44;25.20;61.90
58983;DHT22;44771;49.982;8.560;2023-07-13T09:44:08;25.40;60.10
58983;DHT22;44771;49.982;8.560;2023-07-13T09:49:10;25.50;60.00
58983;DHT22;44771;49.982;8.560;2023-07-13T09:54:20;25.40;58.60
58983;DHT22;44771;49.982;8.560;2023-07-13T09:59:26;25.10;57.10
58983;DHT22;44771;49.982;8.560;2023-07-13T10:04:31;25.00;59.90
58983;DHT22;44771;49.982;8.560;2023-07-13T10:09:34;25.20;57.50
58983;DHT22;44771;49.982;8.560;2023-07-13T10:14:37;25.00;58.20
58983;DHT22;44771;49.982;8.560;2023-07-13T10:19:41;25.10;60.20
58983;DHT22;44771;49.982;8.560;2023-07-13T10:24:44;25.30;57.60
58983;DHT22;44771;49.982;8.560;2023-07-13T10:29:49;25.80;58.00
58983;DHT22;44771;49.982;8.560;2023-07-13T10:34:52;26.10;57.40
58983;DHT22;44771;49.982;8.560;2023-07-13T10:39:56;26.00;56.40
58983;DHT22;44771;49.982;8.560;2023-07-13T10:44:59;25.80;55.80
58983;DHT22;44771;49.982;8.560;2023-07-13T10:50:03;26.30;54.80
58983;DHT22;44771;49.982;8.560;2023-07-13T10:55:07;27.00;54.40
58983;DHT22;44771;49.982;8.560;2023-07-13T11:00:31;27.00;54.10
58983;DHT22;44771;49.982;8.560;2023-07-13T11:05:33;27.60;52.50
58983;DHT22;44771;49.982;8.560;2023-07-13T11:10:50;28.20;53.70
58983;DHT22;44771;49.982;8.560;2023-07-13T11:15:54;27.20;51.50
58983;DHT22;44771;49.982;8.560;2023-07-13T11:21:13;25.90;53.10
58983;DHT22;44771;49.982;8.560;2023-07-13T11:26:41;26.50;55.00
58983;DHT22;44771;49.982;8.560;2023-07-13T11:31:51;26.60;54.80
58983;DHT22;44771;49.982;8.560;2023-07-13T11:36:54;25.80;54.10
58983;DHT22;44771;49.982;8.560;2023-07-13T11:42:00;25.60;56.70
58983;DHT22;44771;49.982;8.560;2023-07-13T11:47:10;26.40;54.30
58983;DHT22;44771;49.982;8.560;2023-07-13T11:52:15;26.90;52.10
58983;DHT22;44771;49.982;8.560;2023-07-13T11:57:24;26.80;51.80
58983;DHT22;44771;49.982;8.560;2023-07-13T12:02:31;26.60;54.60
58983;DHT22;44771;49.982;8.560;2023-07-13T12:07:34;26.90;51.30
58983;DHT22;44771;49.982;8.560;2023-07-13T12:12:36;27.10;51.50
58983;DHT22;44771;49.982;8.560;2023-07-13T12:17:41;26.90;51.60
58983;DHT22;44771;49.982;8.560;2023-07-13T12:22:45;27.40;50.80
58983;DHT22;44771;49.982;8.560;2023-07-13T12:27:48;27.70;49.60
58983;DHT22;44771;49.982;8.560;2023-07-13T12:33:00;28.10;49.20
58983;DHT22;44771;49.982;8.560;2023-07-13T12:38:02;28.30;49.60
58983;DHT22;44771;49.982;8.560;2023-07-13T12:43:04;28.20;49.60
58983;DHT22;44771;49.982;8.560;2023-07-13T12:48:15;28.10;49.00
58983;DHT22;44771;49.982;8.560;2023-07-13T12:53:20;27.10;50.40
58983;DHT22;44771;49.982;8.560;2023-07-13T12:58:26;26.70;51.10
58983;DHT22;44771;49.982;8.560;2023-07-13T13:03:31;25.80;53.20
58983;DHT22;44771;49.982;8.560;2023-07-13T13:08:35;25.20;53.40
58983;DHT22;44771;49.982;8.560;2023-07-13T13:13:37;25.10;54.00
58983;DHT22;44771;49.982;8.560;2023-07-13T13:18:40;24.90;54.30
58983;DHT22;44771;49.982;8.560;2023-07-13T13:23:42;24.90;54.00
58983;DHT22;44771;49.982;8.560;2023-07-13T13:28:45;25.00;54.20
58983;DHT22;44771;49.982;8.560;2023-07-13T13:33:48;25.10;53.30
58983;DHT22;44771;49.982;8.560;2023-07-13T13:38:50;25.20;53.60
58983;DHT22;44771;49.982;8.560;2023-07-13T13:43:52;25.10;54.10
58983;DHT22;44771;49.982;8.560;2023-07-13T13:48:55;25.20;53.40
58983;DHT22;44771;49.982;8.560;2023-07-13T13:53:57;25.30;53.00
58983;DHT22;44771;49.982;8.560;2023-07-13T13:58:58;25.30;54.20
58983;DHT22;44771;49.982;8.560;2023-07-13T14:04:02;25.20;55.00
58983;DHT22;44771;49.982;8.560;2023-07-13T14:09:08;25.60;53.20
58983;DHT22;44771;49.982;8.560;2023-07-13T14:14:15;25.40;53.20
58983;DHT22;44771;49.982;8.560;2023-07-13T14:19:19;25.40;53.80
58983;DHT22;44771;49.982;8.560;2023-07-13T14:24:21;25.20;53.80
58983;DHT22;44771;49.982;8.560;2023-07-13T14:29:23;25.30;53.30
58983;DHT22;44771;49.982;8.560;2023-07-13T14:34:27;25.10;52.30
58983;DHT22;44771;49.982;8.560;2023-07-13T14:39:28;25.30;53.80
58983;DHT22;44771;49.982;8.560;2023-07-13T14:44:31;25.30;53.10
58983;DHT22;44771;49.982;8.560;2023-07-13T14:49:37;25.00;53.30
58983;DHT22;44771;49.982;8.560;2023-07-13T14:54:39;24.80;54.60
58983;DHT22;44771;49.982;8.560;2023-07-13T14:59:41;24.30;54.30
58983;DHT22;44771;49.982;8.560;2023-07-13T15:04:45;24.00;55.90
58983;DHT22;44771;49.982;8.560;2023-07-13T15:09:46;23.80;57.90
58983;DHT22;44771;49.982;8.560;2023-07-13T15:14:48;23.70;57.50
58983;DHT22;44771;49.982;8.560;2023-07-13T15:19:51;23.80;58.50
58983;DHT22;44771;49.982;8.560;2023-07-13T15:24:53;23.90;57.00
58983;DHT22;44771;49.982;8.560;2023-07-13T15:29:57;24.00;56.40
58983;DHT22;44771;49.982;8.560;2023-07-13T15:35:00;24.40;56.60
58983;DHT22;44771;49.982;8.560;2023-07-13T15:40:02;24.40;55.80
58983;DHT22;44771;49.982;8.560;2023-07-13T15:45:04;24.20;56.90
58983;DHT22;44771;49.982;8.560;2023-07-13T15:50:12;24.20;57.70
58983;DHT22;44771;49.982;8.560;2023-07-13T15:55:14;24.20;56.10
58983;DHT22;44771;49.982;8.560;2023-07-13T16:00:22;24.20;56.40
58983;DHT22;44771;49.982;8.560;2023-07-13T16:05:25;24.30;56.60
58983;DHT22;44771;49.982;8.560;2023-07-13T16:10:31;24.30;56.90
58983;DHT22;44771;49.982;8.560;2023-07-13T16:15:33;24.70;56.40
58983;DHT22;44771;49.982;8.560;2023-07-13T16:20:37;25.00;53.70
58983;DHT22;44771;49.982;8.560;2023-07-13T16:25:42;24.90;55.70
58983;DHT22;44771;49.982;8.560;2023-07-13T16:30:44;24.80;55.00
58983;DHT22;44771;49.982;8.560;2023-07-13T16:35:47;25.10;56.70
58983;DHT22;44771;49.982;8.560;2023-07-13T16:40:49;25.10;53.60
58983;DHT22;44771;49.982;8.560;2023-07-13T16:45:51;25.00;54.40
58983;DHT22;44771;49.982;8.560;2023-07-13T16:50:57;24.90;54.90
58983;DHT22;44771;49.982;8.560;2023-07-13T16:55:59;24.80;55.20
58983;DHT22;44771;49.982;8.560;2023-07-13T17:01:01;24.50;54.40
58983;DHT22;44771;49.982;8.560;2023-07-13T17:06:20;24.20;56.80
58983;DHT22;44771;49.982;8.560;2023-07-13T17:11:22;23.90;54.50
58983;DHT22;44771;49.982;8.560;2023-07-13T17:16:24;23.90;55.40
58983;DHT22;44771;49.982;8.560;2023-07-13T17:21:27;23.90;55.70
58983;DHT22;44771;49.982;8.560;2023-07-13T17:26:29;23.80;55.50
58983;DHT22;44771;49.982;8.560;2023-07-13T17:31:31;23.70;55.60
58983;DHT22;44771;49.982;8.560;2023-07-13T17:36:34;23.70;55.60
58983;DHT22;44771;49.982;8.560;2023-07-13T17:41:35;23.70;56.40
58983;DHT22;44771;49.982;8.560;2023-07-13T17:46:37;23.60;56.00
58983;DHT22;44771;49.982;8.560;2023-07-13T17:51:41;23.40;55.50
58983;DHT22;44771;49.982;8.560;2023-07-13T17:56:43;23.30;56.60
58983;DHT22;44771;49.982;8.560;2023-07-13T18:01:45;23.20;57.40
58983;DHT22;44771;49.982;8.560;2023-07-13T18:06:49;23.00;57.50
58983;DHT22;44771;49.982;8.560;2023-07-13T18:11:53;22.90;57.50
58983;DHT22;44771;49.982;8.560;2023-07-13T18:16:56;22.80;57.40
58983;DHT22;44771;49.982;8.560;2023-07-13T18:22:02;22.80;57.10
58983;DHT22;44771;49.982;8.560;2023-07-13T18:27:04;22.70;57.10
58983;DHT22;44771;49.982;8.560;2023-07-13T18:32:09;22.60;57.40
58983;DHT22;44771;49.982;8.560;2023-07-13T18:37:19;22.40;57.80
58983;DHT22;44771;49.982;8.560;2023-07-13T18:42:21;22.20;59.10
58983;DHT22;44771;49.982;8.560;2023-07-13T18:47:23;22.10;59.40
58983;DHT22;44771;49.982;8.560;2023-07-13T18:52:26;21.80;63.00
58983;DHT22;44771;49.982;8.560;2023-07-13T18:57:28;21.40;67.80
58983;DHT22;44771;49.982;8.560;2023-07-13T19:02:30;21.00;64.30
58983;DHT22;44771;49.982;8.560;2023-07-13T19:07:33;20.50;66.90
58983;DHT22;44771;49.982;8.560;2023-07-13T19:12:35;20.20;69.00
58983;DHT22;44771;49.982;8.560;2023-07-13T19:17:37;19.80;67.90
58983;DHT22;44771;49.982;8.560;2023-07-13T19:22:40;19.50;69.70
58983;DHT22;44771;49.982;8.560;2023-07-13T19:27:42;19.10;70.70
58983;DHT22;44771;49.982;8.560;2023-07-13T19:32:45;18.80;76.40
58983;DHT22;44771;49.982;8.560;2023-07-13T19:37:48;18.50;76.70
58983;DHT22;44771;49.982;8.560;2023-07-13T19:42:50;18.00;78.20
58983;DHT22;44771;49.982;8.560;2023-07-13T19:47:51;17.70;79.60
58983;DHT22;44771;49.982;8.560;2023-07-13T19:52:55;17.50;78.70
58983;DHT22;44771;49.982;8.560;2023-07-13T19:57:57;17.40;80.60
58983;DHT22;44771;49.982;8.560;2023-07-13T20:02:59;17.00;80.10
58983;DHT22;44771;49.982;8.560;2023-07-13T20:08:16;16.80;80.00
58983;DHT22;44771;49.982;8.560;2023-07-13T20:13:19;16.80;79.30
58983;DHT22;44771;49.982;8.560;2023-07-13T20:18:21;16.50;82.60
58983;DHT22;44771;49.982;8.560;2023-07-13T20:23:24;16.30;83.50
58983;DHT22;44771;49.982;8.560;2023-07-13T20:28:26;16.30;85.00
58983;DHT22;44771;49.982;8.560;2023-07-13T20:33:29;16.10;86.70
58983;DHT22;44771;49.982;8.560;2023-07-13T20:38:33;15.90;85.10
58983;DHT22;44771;49.982;8.560;2023-07-13T20:43:34;15.70;87.20
58983;DHT22;44771;49.982;8.560;2023-07-13T20:48:37;15.50;87.90
58983;DHT22;44771;49.982;8.560;2023-07-13T20:53:42;15.30;87.90
58983;DHT22;44771;49.982;8.560;2023-07-13T20:58:44;15.30;90.10
58983;DHT22;44771;49.982;8.560;2023-07-13T21:03:46;15.10;90.70
58983;DHT22;44771;49.982;8.560;2023-07-13T21:08:49;15.10;89.20
58983;DHT22;44771;49.982;8.560;2023-07-13T21:13:54;15.00;90.10
58983;DHT22;44771;49.982;8.560;2023-07-13T21:18:56;14.90;92.70
58983;DHT22;44771;49.982;8.560;2023-07-13T21:23:59;14.70;92.60
58983;DHT22;44771;49.982;8.560;2023-07-13T21:29:01;14.60;92.90
58983;DHT22;44771;49.982;8.560;2023-07-13T21:34:07;14.30;94.10
58983;DHT22;44771;49.982;8.560;2023-07-13T21:39:14;14.20;95.30
58983;DHT22;44771;49.982;8.560;2023-07-13T21:44:23;14.00;96.80
58983;DHT22;44771;49.982;8.560;2023-07-13T21:49:25;13.90;97.90
58983;DHT22;44771;49.982;8.560;2023-07-13T21:54:28;13.80;99.50
58983;DHT22;44771;49.982;8.560;2023-07-13T21:59:30;13.60;99.50
58983;DHT22;44771;49.982;8.560;2023-07-13T22:04:32;13.40;99.90
58983;DHT22;44771;49.982;8.560;2023-07-13T22:09:35;13.10;99.90
58983;DHT22;44771;49.982;8.560;2023-07-13T22:14:37;12.90;99.90
58983;DHT22;44771;49.982;8.560;2023-07-13T22:19:39;12.90;99.90
58983;DHT22;44771;49.982;8.560;2023-07-13T22:24:42;12.90;99.90
58983;DHT22;44771;49.982;8.560;2023-07-13T22:29:44;12.90;99.90
58983;DHT22;44771;49.982;8.560;2023-07-13T22:34:45;12.90;99.90
58983;DHT22;44771;49.982;8.560;2023-07-13T22:39:48;13.00;99.90
58983;DHT22;44771;49.982;8.560;2023-07-13T22:44:50;12.90;99.90
58983;DHT22;44771;49.982;8.560;2023-07-13T22:49:52;12.50;99.90
58983;DHT22;44771;49.982;8.560;2023-07-13T22:54:55;12.30;99.90
58983;DHT22;44771;49.982;8.560;2023-07-13T22:59:57;12.40;99.90
58983;DHT22;44771;49.982;8.560;2023-07-13T23:04:58;12.30;99.90
58983;DHT22;44771;49.982;8.560;2023-07-13T23:10:14;12.10;99.90
58983;DHT22;44771;49.982;8.560;2023-07-13T23:15:18;11.90;99.90
58983;DHT22;44771;49.982;8.560;2023-07-13T23:20:23;11.80;99.90
58983;DHT22;44771;49.982;8.560;2023-07-13T23:25:29;11.90;99.90
58983;DHT22;44771;49.982;8.560;2023-07-13T23:30:31;11.90;99.90
58983;DHT22;44771;49.982;8.560;2023-07-13T23:35:33;11.90;99.90
58983;DHT22;44771;49.982;8.560;2023-07-13T23:40:36;11.80;99.90
58983;DHT22;44771;49.982;8.560;2023-07-13T23:45:38;11.70;99.90
58983;DHT22;44771;49.982;8.560;2023-07-13T23:50:42;11.60;99.90
58983;DHT22;44771;49.982;8.560;2023-07-13T23:55:45;11.50;99.90
